Time;durP1;ratioP1;P1;durP2;ratioP2;P2;SDS_P1;SDS_P2;PMS_P1;PMS_P2;Temp;Humidity;BMP_temperature;BMP_pressure;BME280_temperature;BME280_humidity;BME280_pressure;Samples;Min_cycle;Max_cycle;Signal;HPM_P1;HPM_P2
2022/06/13 00:00:32;;;;;;;5.20;2.33;;;19.10;76.50;;;;;;10495724;28;20030;-58
2022/06/13 00:05:35;;;;;;;3.75;1.85;;;19.00;76.50;;;;;;10500523;28;20046;-60
2022/06/13 00:10:36;;;;;;;5.60;2.00;;;19.00;77.10;;;;;;10494391;28;20048;-57
2022/06/13 00:15:37;;;;;;;3.92;2.30;;;19.00;76.60;;;;;;10506182;28;20047;-59
2022/06/13 00:20:38;;;;;;;5.95;2.60;;;19.00;76.70;;;;;;10507819;28;20022;-58
2022/06/13 00:25:39;;;;;;;5.03;2.05;;;19.00;76.80;;;;;;10496059;28;20031;-58
2022/06/13 00:30:40;;;;;;;4.68;2.17;;;19.00;76.90;;;;;;10498631;28;20043;-59
2022/06/13 00:35:41;;;;;;;5.45;2.20;;;18.90;76.90;;;;;;10502720;28;20024;-60
2022/06/13 00:40:42;;;;;;;5.57;2.10;;;18.90;77.00;;;;;;10504914;28;20020;-59
2022/06/13 00:45:43;;;;;;;4.93;2.15;;;18.90;77.10;;;;;;10505515;28;20444;-58
2022/06/13 00:50:56;;;;;;;5.75;2.17;;;18.90;77.10;;;;;;10502063;28;20090;-58
2022/06/13 00:56:09;;;;;;;5.57;2.05;;;18.90;77.30;;;;;;10500167;28;20143;-58
2022/06/13 01:01:09;;;;;;;5.13;2.17;;;18.90;77.40;;;;;;10502372;28;20039;-57
2022/06/13 01:06:10;;;;;;;5.15;2.03;;;18.80;77.40;;;;;;10507366;28;20032;-58
2022/06/13 01:11:18;;;;;;;4.32;2.03;;;18.80;77.50;;;;;;10499565;28;20139;-58
2022/06/13 01:16:36;;;;;;;6.17;2.20;;;18.80;77.60;;;;;;10507275;28;20841;-61
2022/06/13 01:22:00;;;;;;;5.18;2.20;;;18.80;77.80;;;;;;10510714;28;20078;-59
2022/06/13 01:27:23;;;;;;;4.97;2.20;;;18.80;77.80;;;;;;10509144;28;20031;-58
2022/06/13 01:32:41;;;;;;;4.80;2.33;;;18.70;77.90;;;;;;10502296;28;20043;-60
2022/06/13 01:37:59;;;;;;;4.30;1.88;;;18.80;78.00;;;;;;10507168;28;20051;-58
2022/06/13 01:43:08;;;;;;;6.18;2.30;;;18.70;78.10;;;;;;10515321;28;20048;-61
2022/06/13 01:48:33;;;;;;;4.85;1.92;;;18.70;78.00;;;;;;10509595;28;20032;-60
2022/06/13 01:54:06;;;;;;;3.88;1.77;;;18.70;78.20;;;;;;10512125;28;20722;-59
2022/06/13 01:59:33;;;;;;;5.00;2.13;;;18.60;78.20;;;;;;10511778;28;20084;-59
2022/06/13 02:04:49;;;;;;;4.18;2.28;;;18.60;78.30;;;;;;10511286;28;20044;-58
2022/06/13 02:10:00;;;;;;;4.65;2.55;;;18.60;78.30;;;;;;10513913;28;20130;-58
2022/06/13 02:15:10;;;;;;;7.60;2.60;;;18.60;78.40;;;;;;10506965;28;20406;-60
2022/06/13 02:20:20;;;;;;;3.25;2.00;;;18.60;78.50;;;;;;10515959;28;20543;-60
2022/06/13 02:25:29;;;;;;;5.80;1.90;;;18.50;78.50;;;;;;10507975;28;20038;-61
2022/06/13 02:30:38;;;;;;;4.18;1.90;;;18.50;78.50;;;;;;10512257;28;20028;-58
2022/06/13 02:35:46;;;;;;;3.92;1.85;;;18.50;78.60;;;;;;10508605;28;20031;-58
2022/06/13 02:40:53;;;;;;;5.43;2.03;;;18.50;78.70;;;;;;10503468;28;20017;-58
2022/06/13 02:46:14;;;;;;;3.58;2.15;;;18.40;78.70;;;;;;10504959;28;20396;-58
2022/06/13 02:51:38;;;;;;;6.45;2.05;;;18.40;78.90;;;;;;10503573;28;20109;-58
2022/06/13 03:02:45;;;;;;;6.35;2.33;;;18.40;78.90;;;;;;10510105;28;20033;-58
2022/06/13 03:08:02;;;;;;;4.25;2.33;;;18.40;79.10;;;;;;10506939;28;20040;-57
2022/06/13 03:13:41;;;;;;;6.50;2.30;;;18.40;79.10;;;;;;10501064;28;20055;-58
2022/06/13 03:18:48;;;;;;;2.97;1.95;;;18.30;79.30;;;;;;10498738;28;20038;-59
2022/06/13 03:23:56;;;;;;;4.97;2.75;;;18.30;79.20;;;;;;10505301;28;20020;-57
2022/06/13 03:29:04;;;;;;;5.87;3.03;;;18.30;79.30;;;;;;10494477;28;20111;-58
2022/06/13 03:34:18;;;;;;;6.95;2.50;;;18.30;79.40;;;;;;10506955;28;20035;-60
2022/06/13 03:39:27;;;;;;;7.45;3.03;;;18.30;79.70;;;;;;10503355;28;20043;-59
2022/06/13 03:44:33;;;;;;;6.70;2.60;;;18.30;79.60;;;;;;10505045;28;20992;-58
2022/06/13 03:49:50;;;;;;;4.28;2.63;;;18.30;79.70;;;;;;10506477;28;20095;-60
2022/06/13 03:54:54;;;;;;;5.90;2.17;;;18.20;79.70;;;;;;10507547;28;20040;-58
2022/06/13 04:00:14;;;;;;;5.95;2.30;;;18.20;79.80;;;;;;10502997;28;20028;-58
2022/06/13 04:05:37;;;;;;;4.53;2.53;;;18.30;80.00;;;;;;10503758;28;20531;-57
2022/06/13 04:10:46;;;;;;;3.85;2.45;;;18.20;79.90;;;;;;10502703;28;20043;-59
2022/06/13 04:16:18;;;;;;;6.57;2.70;;;18.20;80.10;;;;;;10505277;28;20027;-60
2022/06/13 04:21:47;;;;;;;5.45;2.65;;;18.20;80.20;;;;;;10512447;28;20032;-58
2022/06/13 04:26:59;;;;;;;5.18;2.08;;;18.20;80.10;;;;;;10502353;28;20048;-59
2022/06/13 04:32:05;;;;;;;4.35;2.17;;;18.20;80.30;;;;;;10491579;28;20036;-60
2022/06/13 04:37:07;;;;;;;5.75;2.35;;;18.20;80.30;;;;;;10499219;28;20024;-59
2022/06/13 04:42:10;;;;;;;4.90;2.40;;;18.20;80.30;;;;;;10506339;28;20024;-57
2022/06/13 04:47:16;;;;;;;4.10;2.35;;;18.20;80.30;;;;;;10501280;28;20020;-59
2022/06/13 04:52:21;;;;;;;3.88;2.20;;;18.20;80.90;;;;;;10504881;28;20039;-58
2022/06/13 04:57:22;;;;;;;7.15;2.60;;;18.30;80.30;;;;;;10511443;28;20053;-58
2022/06/13 05:02:35;;;;;;;4.22;2.00;;;18.30;80.20;;;;;;10513512;28;20024;-58
2022/06/13 05:07:36;;;;;;;3.33;1.88;;;18.30;80.20;;;;;;10520705;28;20036;-60
2022/06/13 05:12:44;;;;;;;4.50;1.77;;;18.30;80.70;;;;;;10510737;28;20051;-60
2022/06/13 05:18:10;;;;;;;3.13;1.70;;;18.30;80.10;;;;;;10514424;28;20020;-58
2022/06/13 05:23:22;;;;;;;4.70;1.92;;;18.30;80.10;;;;;;10510898;28;20443;-60
2022/06/13 05:28:30;;;;;;;3.40;1.88;;;18.20;80.00;;;;;;10508058;28;20055;-58
2022/06/13 05:33:34;;;;;;;3.38;1.77;;;18.20;80.00;;;;;;10505712;28;20036;-60
2022/06/13 05:38:36;;;;;;;2.58;1.50;;;18.30;79.90;;;;;;10508998;28;20048;-57
2022/06/13 05:43:37;;;;;;;5.15;1.90;;;18.30;79.80;;;;;;10516978;28;20104;-59
2022/06/13 05:48:38;;;;;;;4.10;1.70;;;18.30;79.80;;;;;;10513675;28;20400;-57
2022/06/13 05:53:39;;;;;;;6.28;1.80;;;18.30;79.70;;;;;;10506952;28;20040;-58
2022/06/13 05:58:40;;;;;;;3.63;1.48;;;18.30;79.60;;;;;;10513837;28;20020;-58
2022/06/13 06:03:42;;;;;;;2.65;1.60;;;18.30;79.60;;;;;;10508762;28;20680;-58
2022/06/13 06:08:42;;;;;;;3.53;1.60;;;18.30;79.60;;;;;;10517262;28;20055;-58
2022/06/13 06:13:43;;;;;;;4.15;1.70;;;18.30;79.60;;;;;;10511817;28;20032;-58
2022/06/13 06:18:45;;;;;;;2.67;1.70;;;18.30;79.60;;;;;;10505453;28;20020;-57
2022/06/13 06:23:45;;;;;;;2.63;1.20;;;18.30;79.50;;;;;;10517388;28;20480;-60
2022/06/13 06:28:46;;;;;;;3.65;1.50;;;18.40;79.40;;;;;;10513741;28;20025;-60
2022/06/13 06:33:47;;;;;;;4.03;1.83;;;18.40;79.30;;;;;;10513669;28;20044;-60
2022/06/13 06:38:48;;;;;;;4.43;1.90;;;18.40;79.20;;;;;;10511116;28;20426;-57
2022/06/13 06:43:49;;;;;;;2.85;1.15;;;18.50;79.20;;;;;;10517795;28;20077;-59
2022/06/13 06:48:51;;;;;;;3.58;1.98;;;18.40;79.20;;;;;;10509564;28;20517;-59
2022/06/13 07:04:31;;;;;;;4.13;1.40;;;18.40;79.50;;;;;;10512605;28;20036;-59
2022/06/13 07:09:31;;;;;;;3.33;1.70;;;18.40;79.60;;;;;;10509018;28;20443;-58
2022/06/13 07:14:34;;;;;;;5.60;1.27;;;18.40;79.60;;;;;;10503418;28;20040;-58
2022/06/13 07:19:36;;;;;;;3.58;2.00;;;18.40;79.50;;;;;;10510391;28;20028;-60
2022/06/13 07:24:37;;;;;;;5.43;1.20;;;18.40;79.50;;;;;;10511133;28;20418;-59
2022/06/13 07:29:37;;;;;;;2.92;1.33;;;18.50;79.50;;;;;;10502594;28;20028;-58
2022/06/13 07:34:39;;;;;;;2.45;1.30;;;18.50;79.50;;;;;;10503672;28;20067;-58
2022/06/13 07:39:40;;;;;;;4.80;1.40;;;18.50;80.00;;;;;;10508739;28;20025;-58
2022/06/13 07:44:41;;;;;;;5.30;1.33;;;18.50;79.50;;;;;;10501307;28;20055;-59
2022/06/13 07:49:42;;;;;;;5.00;1.30;;;18.50;79.40;;;;;;10513040;28;20044;-58
2022/06/13 07:54:43;;;;;;;2.58;1.20;;;18.50;79.40;;;;;;10502609;28;20439;-58
2022/06/13 07:59:43;;;;;;;5.07;1.73;;;18.50;79.40;;;;;;10506219;28;20028;-58
2022/06/13 08:04:45;;;;;;;2.40;1.25;;;18.50;79.40;;;;;;10507430;28;20036;-58
2022/06/13 08:09:45;;;;;;;2.42;1.45;;;18.60;79.40;;;;;;10512487;28;20097;-59
2022/06/13 08:14:47;;;;;;;3.20;1.63;;;18.60;79.30;;;;;;10505120;28;20074;-59
2022/06/13 08:19:50;;;;;;;1.98;1.10;;;18.60;79.40;;;;;;10512637;28;20817;-59
2022/06/13 08:24:50;;;;;;;1.77;1.05;;;18.50;79.50;;;;;;10508223;28;20043;-58
2022/06/13 08:29:51;;;;;;;2.40;1.08;;;18.50;79.60;;;;;;10499156;28;20115;-58
2022/06/13 08:34:52;;;;;;;1.98;1.17;;;18.50;79.60;;;;;;10511832;28;20037;-59
2022/06/13 08:39:54;;;;;;;3.17;1.13;;;18.50;79.60;;;;;;10506356;28;20151;-60
2022/06/13 08:45:21;;;;;;;4.97;1.08;;;18.60;79.50;;;;;;10510547;28;20400;-59
2022/06/13 08:50:37;;;;;;;3.00;1.25;;;18.60;79.80;;;;;;10476509;28;20040;-59
2022/06/13 08:55:49;;;;;;;4.38;0.90;;;18.60;80.00;;;;;;10511400;28;20043;-64
2022/06/13 09:01:29;;;;;;;4.68;0.85;;;18.70;78.60;;;;;;10511583;28;20028;-65
2022/06/13 09:06:47;;;;;;;3.78;1.20;;;18.60;76.80;;;;;;10502586;28;20153;-63
2022/06/13 09:11:53;;;;;;;3.63;0.73;;;18.50;77.00;;;;;;10504689;28;20048;-64
2022/06/13 09:17:18;;;;;;;2.20;0.90;;;18.60;77.30;;;;;;10508505;28;20081;-65
2022/06/13 09:22:33;;;;;;;1.60;0.80;;;18.70;75.90;;;;;;10505803;28;20028;-63
2022/06/13 09:27:42;;;;;;;1.98;0.70;;;18.50;75.90;;;;;;10510344;28;20507;-64
2022/06/13 09:32:52;;;;;;;4.18;0.95;;;18.30;76.10;;;;;;10504622;28;20039;-62
2022/06/13 09:38:19;;;;;;;0.85;0.75;;;18.20;76.20;;;;;;10512523;28;20442;-62
2022/06/13 09:43:23;;;;;;;4.97;1.17;;;18.20;73.70;;;;;;10499559;28;20127;-62
2022/06/13 09:48:42;;;;;;;1.88;0.70;;;18.20;75.60;;;;;;10505984;28;20024;-63
2022/06/13 09:54:01;;;;;;;4.30;0.98;;;18.20;75.50;;;;;;10513833;28;20079;-61
2022/06/13 09:59:25;;;;;;;2.50;0.75;;;18.20;74.00;;;;;;10508409;28;20037;-61
2022/06/13 10:04:43;;;;;;;3.20;1.00;;;18.10;74.80;;;;;;10512614;28;20037;-61
2022/06/13 10:09:49;;;;;;;3.73;1.00;;;18.20;75.20;;;;;;10502164;28;20056;-61
2022/06/13 10:15:13;;;;;;;2.92;0.80;;;18.30;74.90;;;;;;10509173;28;20130;-61
2022/06/13 10:20:35;;;;;;;4.55;1.20;;;18.40;74.20;;;;;;10514792;28;20134;-63
2022/06/13 10:26:05;;;;;;;3.95;1.10;;;18.40;74.70;;;;;;10509253;28;20031;-63
2022/06/13 10:31:16;;;;;;;5.10;1.10;;;18.40;74.00;;;;;;10514335;28;20032;-62
2022/06/13 10:36:45;;;;;;;7.15;1.00;;;18.40;74.30;;;;;;10514167;28;20032;-61
2022/06/13 10:41:51;;;;;;;5.07;1.00;;;18.30;73.30;;;;;;10506073;28;20036;-63
2022/06/13 10:47:01;;;;;;;3.67;1.13;;;18.20;74.40;;;;;;10504941;28;20604;-60
2022/06/13 10:52:07;;;;;;;6.93;1.00;;;18.60;74.10;;;;;;10501886;28;20699;-64
2022/06/13 10:57:12;;;;;;;7.45;1.33;;;18.60;73.90;;;;;;10507678;28;20026;-63
2022/06/13 11:02:19;;;;;;;5.05;0.98;;;18.20;74.20;;;;;;10512942;28;20494;-63
2022/06/13 11:07:20;;;;;;;5.15;1.17;;;18.20;74.60;;;;;;10511842;28;20488;-61
2022/06/13 11:12:23;;;;;;;7.63;1.73;;;18.60;73.90;;;;;;10508120;28;20055;-66
2022/06/13 11:22:58;;;;;;;8.27;1.10;;;18.70;74.00;;;;;;10519363;28;20085;-63
2022/06/13 11:28:15;;;;;;;3.47;1.13;;;18.70;73.40;;;;;;10507187;28;20142;-60
2022/06/13 11:33:30;;;;;;;2.23;0.90;;;18.70;73.20;;;;;;10497740;28;20040;-65
2022/06/13 11:38:36;;;;;;;3.30;0.80;;;18.80;73.00;;;;;;10509562;28;20031;-62
2022/06/13 11:43:45;;;;;;;6.15;1.10;;;19.00;72.70;;;;;;10512767;28;20478;-61
2022/06/13 11:48:48;;;;;;;6.70;0.98;;;18.90;72.50;;;;;;10510069;28;20024;-65
2022/06/13 11:53:51;;;;;;;4.07;1.02;;;19.00;72.80;;;;;;10514664;28;20060;-66
2022/06/13 11:58:55;;;;;;;6.22;1.08;;;19.20;72.20;;;;;;10503656;28;20024;-60
2022/06/13 12:04:07;;;;;;;4.57;1.02;;;19.40;71.40;;;;;;10508791;28;20039;-60
2022/06/13 12:09:23;;;;;;;3.03;0.70;;;19.60;70.90;;;;;;10510376;28;20039;-64
2022/06/13 12:14:28;;;;;;;3.08;1.00;;;19.50;71.00;;;;;;10509225;28;20048;-62
2022/06/13 12:19:41;;;;;;;4.30;1.20;;;19.70;71.10;;;;;;10506400;28;20023;-62
2022/06/13 12:24:54;;;;;;;5.00;1.10;;;19.70;70.90;;;;;;10510254;28;20029;-62
2022/06/13 12:30:21;;;;;;;1.50;0.73;;;19.80;71.10;;;;;;10497095;28;20189;-62
2022/06/13 12:35:27;;;;;;;3.55;1.00;;;20.00;70.50;;;;;;10500151;28;20516;-61
2022/06/13 12:40:37;;;;;;;4.18;1.08;;;20.20;70.00;;;;;;10503293;28;20143;-63
2022/06/13 12:46:23;;;;;;;5.82;1.02;;;20.30;69.30;;;;;;10510405;28;20039;-61
2022/06/13 12:51:53;;;;;;;6.30;1.25;;;20.60;68.60;;;;;;10491802;28;20077;-64
2022/06/13 12:57:03;;;;;;;3.63;0.95;;;20.70;69.00;;;;;;10493880;28;20407;-66
2022/06/13 13:02:25;;;;;;;3.58;1.05;;;20.40;69.60;;;;;;10507949;28;20025;-68
2022/06/13 13:07:50;;;;;;;3.90;1.00;;;20.20;69.30;;;;;;10501005;28;20073;-60
2022/06/13 13:12:57;;;;;;;5.47;1.00;;;20.40;69.20;;;;;;10507725;28;20724;-62
2022/06/13 13:18:33;;;;;;;7.20;2.28;;;20.30;69.10;;;;;;10516049;28;20039;-61
2022/06/13 13:23:58;;;;;;;2.83;1.08;;;20.70;67.80;;;;;;10519382;28;20040;-61
2022/06/13 13:29:23;;;;;;;3.53;1.23;;;20.40;67.80;;;;;;10509796;28;20032;-63
2022/06/13 13:34:39;;;;;;;9.80;2.88;;;20.00;67.50;;;;;;10518554;28;20040;-61
2022/06/13 13:40:15;;;;;;;5.28;1.30;;;20.10;68.50;;;;;;10510697;28;20031;-58
2022/06/13 13:45:28;;;;;;;10.90;2.75;;;20.50;67.60;;;;;;10512620;28;20047;-59
2022/06/13 13:50:32;;;;;;;13.57;1.48;;;20.80;67.30;;;;;;10510269;28;20398;-59
2022/06/13 13:55:58;;;;;;;25.50;3.35;;;20.80;67.90;;;;;;10508388;28;20043;-58
2022/06/13 14:01:37;;;;;;;9.77;1.60;;;21.10;65.90;;;;;;10511625;28;20032;-64
2022/06/13 14:06:49;;;;;;;6.45;1.40;;;21.60;66.50;;;;;;10470814;28;20040;-57
2022/06/13 14:12:04;;;;;;;164.48;15.65;;;21.80;65.00;;;;;;10513187;28;20044;-58
2022/06/13 14:17:07;;;;;;;116.80;10.15;;;21.90;63.90;;;;;;10509380;28;20127;-65
2022/06/13 14:22:16;;;;;;;34.40;4.40;;;21.80;65.10;;;;;;10511547;28;20036;-57
2022/06/13 14:27:18;;;;;;;9.35;2.03;;;21.90;65.20;;;;;;10518157;28;20031;-70
2022/06/13 14:32:33;;;;;;;4.57;0.88;;;21.50;65.60;;;;;;10503115;28;20069;-63
2022/06/13 14:37:43;;;;;;;3.00;1.50;;;21.10;65.10;;;;;;10504624;28;20495;-59
2022/06/13 14:42:56;;;;;;;5.45;1.20;;;20.80;65.90;;;;;;10515106;28;20025;-60
2022/06/13 14:48:21;;;;;;;4.75;0.98;;;20.90;66.00;;;;;;10505626;28;20020;-59
2022/06/13 14:53:37;;;;;;;2.90;1.35;;;21.40;64.80;;;;;;10514017;28;20062;-62
2022/06/13 14:58:44;;;;;;;2.17;0.98;;;21.80;64.80;;;;;;10502795;28;20024;-59
2022/06/13 15:04:03;;;;;;;13.07;1.40;;;22.20;64.30;;;;;;10513607;28;20036;-61
2022/06/13 15:09:07;;;;;;;118.40;13.48;;;22.40;63.60;;;;;;10514670;28;20083;-66
2022/06/13 15:14:20;;;;;;;31.50;3.45;;;22.20;64.20;;;;;;10517503;28;20079;-59
2022/06/13 15:19:30;;;;;;;113.50;9.43;;;21.40;64.50;;;;;;10514311;28;20040;-58
2022/06/13 15:24:59;;;;;;;15.02;2.58;;;20.80;66.40;;;;;;10505761;28;21406;-76
2022/06/13 15:30:15;;;;;;;7.28;1.40;;;20.40;66.80;;;;;;10507993;28;20043;-69
2022/06/13 15:35:18;;;;;;;7.15;1.27;;;20.30;68.90;;;;;;10513281;28;20040;-63
2022/06/13 15:40:26;;;;;;;4.88;1.30;;;20.30;67.40;;;;;;10500790;28;20025;-67
2022/06/13 15:45:32;;;;;;;4.15;1.10;;;20.70;66.70;;;;;;10511106;28;20057;-74
2022/06/13 15:50:33;;;;;;;3.35;1.10;;;21.00;66.30;;;;;;10512599;28;20032;-69
2022/06/13 15:55:48;;;;;;;8.30;1.20;;;21.10;66.00;;;;;;10515073;28;20684;-63
2022/06/13 16:00:49;;;;;;;3.75;1.40;;;21.10;65.40;;;;;;10505955;28;20031;-70
2022/06/13 16:06:10;;;;;;;4.72;1.13;;;20.90;66.10;;;;;;10503136;28;20055;-61
2022/06/13 16:11:11;;;;;;;6.78;1.30;;;20.80;65.70;;;;;;10510650;28;20067;-61
2022/06/13 16:16:18;;;;;;;3.50;1.10;;;20.70;66.60;;;;;;10507156;28;20032;-67
2022/06/13 16:21:23;;;;;;;4.05;1.20;;;20.50;66.50;;;;;;10505044;28;20025;-68
2022/06/13 16:26:32;;;;;;;5.15;1.30;;;20.30;67.00;;;;;;10513448;28;20035;-60
2022/06/13 16:31:37;;;;;;;3.47;1.00;;;20.20;67.00;;;;;;10504453;28;20051;-67
2022/06/13 16:36:49;;;;;;;5.60;1.27;;;20.00;67.20;;;;;;10505033;28;20029;-61
2022/06/13 16:41:56;;;;;;;4.57;0.93;;;19.70;67.30;;;;;;10509293;28;20548;-64
2022/06/13 16:47:02;;;;;;;1.80;0.80;;;19.70;67.70;;;;;;10511029;28;20033;-60
2022/06/13 16:52:17;;;;;;;7.22;1.20;;;19.70;67.50;;;;;;10515578;28;20078;-64
2022/06/13 16:57:48;;;;;;;3.90;1.08;;;19.60;67.60;;;;;;10509234;28;20035;-61
2022/06/13 17:02:52;;;;;;;7.18;1.30;;;19.50;67.20;;;;;;10516106;28;20016;-67
2022/06/13 17:08:12;;;;;;;8.07;1.65;;;19.30;68.20;;;;;;10505199;28;20067;-61
2022/06/13 17:13:13;;;;;;;2.00;1.10;;;19.20;68.00;;;;;;10515274;28;20048;-59
2022/06/13 17:18:18;;;;;;;3.20;1.30;;;19.10;68.50;;;;;;10513621;28;22097;-60
2022/06/13 17:23:20;;;;;;;5.10;1.20;;;19.00;68.50;;;;;;10512622;28;20032;-66
2022/06/13 17:33:41;;;;;;;5.13;1.50;;;18.80;68.80;;;;;;10513433;28;20051;-59
2022/06/13 17:38:42;;;;;;;3.45;1.23;;;18.60;69.20;;;;;;10521110;28;20144;-59
2022/06/13 17:43:43;;;;;;;3.72;1.10;;;18.40;69.70;;;;;;10503697;28;20362;-57
2022/06/13 17:48:43;;;;;;;5.22;1.42;;;18.60;70.10;;;;;;10507880;28;20396;-57
2022/06/13 17:53:44;;;;;;;4.88;1.60;;;18.90;69.90;;;;;;10509118;28;20079;-63
2022/06/13 17:58:45;;;;;;;3.40;1.20;;;19.20;69.70;;;;;;10507615;28;20564;-58
2022/06/13 18:03:47;;;;;;;4.55;1.30;;;19.40;69.50;;;;;;10502321;28;20028;-58
2022/06/13 18:08:51;;;;;;;3.55;1.38;;;19.50;69.40;;;;;;10515591;28;20127;-57
2022/06/13 18:13:52;;;;;;;4.65;1.30;;;19.70;69.40;;;;;;10509289;28;20504;-57
2022/06/13 18:18:56;;;;;;;2.58;1.00;;;19.80;69.40;;;;;;10514422;28;20024;-59
2022/06/13 18:23:58;;;;;;;3.50;1.30;;;19.90;69.50;;;;;;10502774;28;20031;-58
2022/06/13 18:29:04;;;;;;;3.38;1.30;;;19.90;69.50;;;;;;10523311;28;20024;-57
2022/06/13 18:34:05;;;;;;;2.17;1.10;;;19.90;69.50;;;;;;10514294;28;20130;-63
2022/06/13 18:39:05;;;;;;;3.13;0.90;;;20.00;69.60;;;;;;10517467;28;20028;-58
2022/06/13 18:44:07;;;;;;;2.85;1.13;;;20.00;69.80;;;;;;10512159;28;20030;-57
2022/06/13 18:49:09;;;;;;;2.60;1.00;;;20.00;69.90;;;;;;10515281;28;20024;-63
2022/06/13 18:54:11;;;;;;;4.00;1.02;;;20.00;70.00;;;;;;10513649;28;20093;-57
2022/06/13 18:59:11;;;;;;;2.70;1.00;;;20.00;70.10;;;;;;10508302;28;20024;-58
2022/06/13 19:04:18;;;;;;;2.92;0.95;;;20.00;70.20;;;;;;10503262;28;20104;-56
2022/06/13 19:09:19;;;;;;;4.93;1.48;;;19.90;70.30;;;;;;10507583;28;20089;-57
2022/06/13 19:14:23;;;;;;;3.83;1.15;;;19.90;70.40;;;;;;10510754;28;20036;-57
2022/06/13 19:19:24;;;;;;;2.05;0.90;;;19.90;70.50;;;;;;10512844;28;20076;-57
2022/06/13 19:24:26;;;;;;;2.72;1.25;;;19.90;70.60;;;;;;10513793;28;20059;-58
2022/06/13 19:29:30;;;;;;;2.78;1.13;;;19.90;70.70;;;;;;10508149;28;20024;-57
2022/06/13 19:34:36;;;;;;;4.30;1.02;;;19.80;70.70;;;;;;10509688;28;20064;-61
2022/06/13 19:39:41;;;;;;;3.58;1.00;;;19.80;70.80;;;;;;10502668;28;20109;-57
2022/06/13 19:44:43;;;;;;;3.53;1.02;;;19.80;70.90;;;;;;10504903;28;20044;-58
2022/06/13 19:49:43;;;;;;;6.45;1.40;;;19.70;70.90;;;;;;10504125;28;20024;-59
2022/06/13 19:54:44;;;;;;;3.88;1.20;;;19.70;70.90;;;;;;10497289;28;20036;-59
2022/06/13 19:59:45;;;;;;;3.45;1.17;;;19.70;71.10;;;;;;10502938;28;20077;-61
2022/06/13 20:04:46;;;;;;;2.70;1.10;;;19.70;71.80;;;;;;10508074;28;20035;-57
2022/06/13 20:09:46;;;;;;;1.92;0.80;;;19.60;71.20;;;;;;10506560;28;20082;-66
2022/06/13 20:14:47;;;;;;;4.35;0.95;;;19.60;71.30;;;;;;10508046;28;20033;-56
2022/06/13 20:19:48;;;;;;;3.10;0.90;;;19.60;71.30;;;;;;10498011;28;20037;-57
2022/06/13 20:24:48;;;;;;;4.68;1.17;;;19.50;71.40;;;;;;10496470;28;20032;-57
2022/06/13 20:29:51;;;;;;;4.65;1.10;;;19.50;71.40;;;;;;10511486;28;20024;-57
2022/06/13 20:34:55;;;;;;;3.15;1.00;;;19.50;71.70;;;;;;10507843;28;20045;-57
2022/06/13 20:39:59;;;;;;;4.07;1.02;;;19.40;71.70;;;;;;10507770;28;20430;-56
2022/06/13 20:45:03;;;;;;;3.03;1.25;;;19.40;71.80;;;;;;10506204;28;20029;-64
2022/06/13 20:50:07;;;;;;;5.20;1.30;;;19.40;71.90;;;;;;10512144;28;20032;-62
2022/06/13 20:55:08;;;;;;;6.85;1.02;;;19.30;71.90;;;;;;10500265;28;20557;-56
2022/06/13 21:00:11;;;;;;;2.25;0.90;;;19.30;72.00;;;;;;10507828;28;20020;-61
2022/06/13 21:05:14;;;;;;;9.13;1.80;;;19.30;72.00;;;;;;10501969;28;20028;-68
2022/06/13 21:10:16;;;;;;;4.53;1.25;;;19.20;72.00;;;;;;10511024;28;20504;-60
2022/06/13 21:15:28;;;;;;;3.00;1.08;;;19.20;72.10;;;;;;10511168;28;20032;-64
2022/06/13 21:20:32;;;;;;;6.47;1.38;;;19.10;72.00;;;;;;10509696;28;20420;-61
2022/06/13 21:25:36;;;;;;;3.90;1.25;;;19.10;72.10;;;;;;10513219;28;20354;-65
2022/06/13 21:30:40;;;;;;;2.97;1.17;;;19.10;72.20;;;;;;10508124;28;20035;-58
2022/06/13 21:35:42;;;;;;;3.03;1.10;;;19.00;72.20;;;;;;10522443;28;20031;-64
2022/06/13 21:40:47;;;;;;;2.17;0.98;;;19.00;72.20;;;;;;10508545;28;20021;-56
2022/06/13 21:45:48;;;;;;;2.55;1.02;;;19.00;72.30;;;;;;10516143;28;20333;-64
2022/06/13 21:50:51;;;;;;;3.20;0.95;;;18.90;72.90;;;;;;10514601;28;20027;-59
2022/06/13 21:55:51;;;;;;;4.68;1.00;;;18.90;72.40;;;;;;10510597;28;20020;-57
2022/06/13 22:00:52;;;;;;;4.45;0.95;;;18.90;72.40;;;;;;10513808;28;20573;-61
2022/06/13 22:05:53;;;;;;;2.25;1.13;;;18.80;72.40;;;;;;10503040;28;20024;-56
2022/06/13 22:10:54;;;;;;;4.47;1.00;;;18.80;72.50;;;;;;10517619;28;20087;-64
2022/06/13 22:15:55;;;;;;;2.72;0.90;;;18.80;72.60;;;;;;10492677;28;20540;-60
2022/06/13 22:20:56;;;;;;;4.38;1.30;;;18.70;72.60;;;;;;10512377;28;20026;-57
2022/06/13 22:25:57;;;;;;;3.15;1.00;;;18.70;72.60;;;;;;10518222;28;20396;-57
2022/06/13 22:30:58;;;;;;;4.63;1.23;;;18.70;72.70;;;;;;10506707;28;20039;-59
2022/06/13 22:35:58;;;;;;;1.88;0.98;;;18.60;72.70;;;;;;10510081;28;20089;-59
2022/06/13 22:40:59;;;;;;;2.05;0.80;;;18.60;72.80;;;;;;10506897;28;20067;-63
2022/06/13 22:46:00;;;;;;;0.90;0.70;;;18.60;72.90;;;;;;10512375;28;20098;-56
2022/06/13 22:51:04;;;;;;;2.15;0.90;;;18.50;72.80;;;;;;10506703;28;20040;-62
2022/06/13 22:56:05;;;;;;;3.30;1.13;;;18.50;72.90;;;;;;10510760;28;20070;-62
2022/06/13 23:01:06;;;;;;;2.40;1.00;;;18.50;72.90;;;;;;10504066;28;20111;-64
2022/06/13 23:06:07;;;;;;;2.03;1.00;;;18.50;73.00;;;;;;10506811;28;20028;-60
2022/06/13 23:11:08;;;;;;;3.45;1.10;;;18.40;73.00;;;;;;10511601;28;20455;-60
2022/06/13 23:16:09;;;;;;;2.92;1.10;;;18.40;73.00;;;;;;10512536;28;20085;-62
2022/06/13 23:21:09;;;;;;;3.58;1.17;;;18.40;73.10;;;;;;10507098;28;20607;-64
2022/06/13 23:26:10;;;;;;;1.90;0.90;;;18.30;73.20;;;;;;10511171;28;20024;-64
2022/06/13 23:31:11;;;;;;;3.38;1.15;;;18.30;73.20;;;;;;10512438;28;20039;-57
2022/06/13 23:36:11;;;;;;;2.08;0.98;;;18.30;73.20;;;;;;10511649;28;20118;-57
2022/06/13 23:41:12;;;;;;;3.75;1.45;;;18.20;73.20;;;;;;10502729;28;20028;-62
2022/06/13 23:46:13;;;;;;;2.85;1.73;;;18.20;73.20;;;;;;10502114;28;20062;-62
2022/06/13 23:51:14;;;;;;;3.10;1.08;;;18.20;73.30;;;;;;10511129;28;20036;-61
2022/06/13 23:56:15;;;;;;;1.98;1.00;;;18.10;73.30;;;;;;10504772;28;20496;-58
